Time;durP1;ratioP1;P1;durP2;ratioP2;P2;SDS_P1;SDS_P2;PMS_P1;PMS_P2;Temp;Humidity;BMP_temperature;BMP_pressure;BME280_temperature;BME280_humidity;BME280_pressure;Samples;Min_cycle;Max_cycle;Signal;HPM_P1;HPM_P2
2023/01/29 00:01:17;;;;;;;16.33;11.75;;;4.00;99.90;;;;;;5060154;28;20047;-59
2023/01/29 00:03:42;;;;;;;16.92;12.13;;;4.00;99.90;;;;;;5065129;28;20048;-58
2023/01/29 00:06:08;;;;;;;15.77;11.75;;;4.00;99.90;;;;;;5072792;28;20427;-59
2023/01/29 00:08:35;;;;;;;16.13;12.25;;;4.00;99.90;;;;;;5064513;28;20047;-59
2023/01/29 00:11:03;;;;;;;17.92;12.88;;;4.00;99.90;;;;;;5066471;28;20040;-56
2023/01/29 00:13:28;;;;;;;18.45;12.88;;;4.00;99.90;;;;;;5073380;28;20044;-60
2023/01/29 00:15:56;;;;;;;17.85;12.75;;;4.00;99.90;;;;;;5071433;28;20106;-59
2023/01/29 00:18:21;;;;;;;17.48;12.45;;;4.00;99.90;;;;;;5052435;28;20342;-58
2023/01/29 00:20:47;;;;;;;16.38;12.38;;;4.00;99.90;;;;;;5071053;28;20058;-58
2023/01/29 00:23:13;;;;;;;15.40;11.48;;;4.00;99.90;;;;;;5067778;28;20338;-60
2023/01/29 00:25:38;;;;;;;18.33;12.45;;;4.00;99.90;;;;;;5081875;28;20032;-60
2023/01/29 00:28:04;;;;;;;15.52;12.07;;;4.00;99.90;;;;;;5083292;28;20048;-61
2023/01/29 00:30:29;;;;;;;16.38;11.70;;;4.00;99.90;;;;;;5071333;28;20044;-60
2023/01/29 00:32:56;;;;;;;17.98;11.75;;;4.00;99.90;;;;;;5068403;28;20056;-59
2023/01/29 00:35:21;;;;;;;18.52;12.57;;;4.00;99.90;;;;;;5068436;28;20054;-60
2023/01/29 00:37:48;;;;;;;17.60;12.35;;;4.00;99.90;;;;;;5064117;28;20423;-62
2023/01/29 00:40:15;;;;;;;19.85;12.43;;;4.10;99.90;;;;;;5081074;28;20057;-59
2023/01/29 00:45:35;;;;;;;17.90;12.95;;;4.10;99.90;;;;;;5069219;28;20048;-57
2023/01/29 00:48:01;;;;;;;15.90;11.73;;;4.10;99.90;;;;;;5061828;28;20131;-59
2023/01/29 00:50:27;;;;;;;16.13;11.63;;;4.10;99.90;;;;;;5067150;28;20431;-59
2023/01/29 00:52:53;;;;;;;16.20;11.68;;;4.10;99.90;;;;;;5070617;28;20450;-60
2023/01/29 00:55:19;;;;;;;15.20;12.00;;;4.10;99.90;;;;;;5070189;28;20044;-61
2023/01/29 00:57:44;;;;;;;15.93;11.43;;;4.10;99.90;;;;;;5065688;28;20375;-58
2023/01/29 01:00:13;;;;;;;17.23;11.52;;;4.20;99.90;;;;;;5071205;28;20466;-62
2023/01/29 01:05:23;;;;;;;14.80;11.07;;;4.20;99.90;;;;;;5067840;28;20043;-59
2023/01/29 01:07:51;;;;;;;15.68;11.55;;;4.20;99.90;;;;;;5070967;28;20476;-60
2023/01/29 01:10:27;;;;;;;18.98;11.45;;;4.20;99.90;;;;;;5067866;28;20044;-58
2023/01/29 01:13:02;;;;;;;15.75;11.27;;;4.20;99.90;;;;;;5064032;28;20115;-58
2023/01/29 01:15:30;;;;;;;16.05;11.25;;;4.20;99.90;;;;;;5084254;28;20491;-59
2023/01/29 01:17:58;;;;;;;16.17;10.40;;;4.20;99.90;;;;;;5063726;28;20028;-59
2023/01/29 01:20:26;;;;;;;16.63;10.93;;;4.20;99.90;;;;;;5069780;28;20047;-59
2023/01/29 01:22:55;;;;;;;14.38;11.00;;;4.20;99.90;;;;;;5070115;28;20032;-61
2023/01/29 01:25:22;;;;;;;16.27;10.30;;;4.20;99.90;;;;;;5095885;28;20121;-60
2023/01/29 01:27:52;;;;;;;14.80;10.73;;;4.20;99.90;;;;;;5066200;28;20047;-59
2023/01/29 01:30:17;;;;;;;13.40;10.15;;;4.20;99.90;;;;;;5067842;28;20037;-60
2023/01/29 01:32:43;;;;;;;15.82;10.68;;;4.20;99.90;;;;;;5069721;28;20419;-59
2023/01/29 01:35:10;;;;;;;14.82;10.52;;;4.20;99.90;;;;;;5069268;28;20044;-58
2023/01/29 01:37:36;;;;;;;15.60;10.48;;;4.20;99.90;;;;;;5063083;28;20044;-59
2023/01/29 01:40:20;;;;;;;15.18;10.43;;;4.20;99.90;;;;;;5098003;28;20044;-61
2023/01/29 01:42:53;;;;;;;15.82;10.18;;;4.20;99.90;;;;;;5062746;28;20040;-60
2023/01/29 01:45:33;;;;;;;14.55;10.35;;;4.20;99.90;;;;;;5078757;28;20046;-59
2023/01/29 01:48:25;;;;;;;15.32;10.52;;;4.20;99.90;;;;;;5060774;28;20081;-59
2023/01/29 01:51:03;;;;;;;16.52;10.50;;;4.20;99.90;;;;;;5083404;28;20054;-59
2023/01/29 01:53:37;;;;;;;15.75;11.23;;;4.20;99.90;;;;;;5065034;28;20052;-62
2023/01/29 01:56:08;;;;;;;14.98;11.20;;;4.20;99.90;;;;;;5064770;28;20114;-59
2023/01/29 01:58:38;;;;;;;14.82;11.35;;;4.10;99.90;;;;;;5073954;28;20433;-61
2023/01/29 02:01:06;;;;;;;15.15;11.35;;;4.20;99.90;;;;;;5065226;28;20464;-60
2023/01/29 02:09:34;;;;;;;15.00;11.55;;;4.20;99.90;;;;;;5066323;28;20136;-60
2023/01/29 02:12:12;;;;;;;17.92;11.88;;;4.10;99.90;;;;;;5063069;28;20044;-59
2023/01/29 02:14:39;;;;;;;17.08;12.00;;;4.20;99.90;;;;;;5068618;28;20040;-59
2023/01/29 02:17:06;;;;;;;17.42;13.10;;;4.20;99.90;;;;;;5065736;28;20029;-59
2023/01/29 02:19:59;;;;;;;15.93;11.80;;;4.20;99.90;;;;;;5065202;28;20118;-59
2023/01/29 02:22:34;;;;;;;18.27;11.75;;;4.20;99.90;;;;;;5080616;28;20459;-61
2023/01/29 02:25:34;;;;;;;15.73;12.18;;;4.20;99.90;;;;;;5062037;28;20071;-60
2023/01/29 02:28:25;;;;;;;18.42;12.50;;;4.20;99.90;;;;;;5065981;28;20050;-59
2023/01/29 02:31:26;;;;;;;17.38;12.52;;;4.20;99.90;;;;;;5085436;28;20486;-59
2023/01/29 02:34:05;;;;;;;15.63;11.88;;;4.20;99.90;;;;;;5087106;28;20036;-58
2023/01/29 02:36:38;;;;;;;17.48;11.82;;;4.20;99.90;;;;;;5067123;28;20106;-60
2023/01/29 02:39:19;;;;;;;15.77;11.88;;;4.20;99.90;;;;;;5082551;28;20040;-61
2023/01/29 02:42:06;;;;;;;16.00;11.65;;;4.20;99.90;;;;;;5071312;28;20491;-59
2023/01/29 02:44:46;;;;;;;18.23;12.73;;;4.20;99.90;;;;;;5067574;28;20116;-58
2023/01/29 02:47:38;;;;;;;16.92;12.30;;;4.20;99.90;;;;;;5080940;28;20361;-57
2023/01/29 02:50:25;;;;;;;18.60;13.05;;;4.20;99.90;;;;;;5063718;28;20111;-61
2023/01/29 02:53:06;;;;;;;17.40;13.07;;;4.20;99.90;;;;;;5070416;28;20119;-60
2023/01/29 02:55:56;;;;;;;18.52;13.40;;;4.20;99.90;;;;;;5072165;28;20044;-59
2023/01/29 02:58:42;;;;;;;16.55;12.63;;;4.20;99.90;;;;;;5064331;28;20052;-59
2023/01/29 03:01:14;;;;;;;17.52;12.60;;;4.20;99.90;;;;;;5067292;28;20032;-59
2023/01/29 03:03:44;;;;;;;17.70;13.27;;;4.20;99.90;;;;;;5066750;28;20135;-59
2023/01/29 03:06:31;;;;;;;18.98;13.90;;;4.20;99.90;;;;;;5087289;28;20050;-59
2023/01/29 03:09:03;;;;;;;18.17;13.63;;;4.20;99.90;;;;;;5068979;28;20448;-58
2023/01/29 03:11:38;;;;;;;18.30;14.55;;;4.20;99.90;;;;;;5056732;28;20427;-60
2023/01/29 03:14:13;;;;;;;17.65;13.55;;;4.20;99.90;;;;;;5071981;28;20464;-61
2023/01/29 03:16:46;;;;;;;19.38;13.85;;;4.20;99.90;;;;;;5084151;28;20093;-59
2023/01/29 03:19:38;;;;;;;18.73;13.75;;;4.20;99.90;;;;;;5072779;28;20032;-59
2023/01/29 03:22:06;;;;;;;20.45;14.70;;;4.20;99.90;;;;;;5080651;28;20361;-61
2023/01/29 03:33:09;;;;;;;21.27;15.80;;;4.10;99.90;;;;;;5097565;28;20044;-59
2023/01/29 03:35:41;;;;;;;18.95;15.02;;;4.10;99.90;;;;;;5066065;28;20119;-61
2023/01/29 03:38:10;;;;;;;19.25;15.10;;;4.10;99.90;;;;;;5052402;28;20063;-59
2023/01/29 03:40:44;;;;;;;22.95;16.98;;;4.10;99.90;;;;;;5066994;28;20476;-59
2023/01/29 03:43:31;;;;;;;;;;;4.10;99.90;;;;;;5069549;28;20040;-59
2023/01/29 03:46:23;;;;;;;21.50;16.55;;;4.00;99.90;;;;;;5067589;28;19943;-59
2023/01/29 03:48:53;;;;;;;21.10;17.02;;;4.00;99.90;;;;;;5063065;28;20055;-59
2023/01/29 03:51:33;;;;;;;20.83;17.25;;;4.10;99.90;;;;;;5081003;28;20059;-59
2023/01/29 03:54:13;;;;;;;22.15;17.42;;;4.00;99.90;;;;;;5069975;28;20138;-59
2023/01/29 03:57:14;;;;;;;23.70;17.38;;;4.10;99.90;;;;;;5066633;28;20127;-60
2023/01/29 04:00:13;;;;;;;24.15;17.88;;;4.10;99.90;;;;;;5080629;28;20040;-60
2023/01/29 04:02:50;;;;;;;22.27;17.92;;;4.10;99.90;;;;;;5067736;28;20457;-59
2023/01/29 04:05:19;;;;;;;23.67;17.88;;;4.10;99.90;;;;;;5065194;28;20055;-59
2023/01/29 04:07:50;;;;;;;23.13;18.38;;;4.10;99.90;;;;;;5069019;28;20032;-60
2023/01/29 04:10:20;;;;;;;24.00;17.70;;;4.10;99.90;;;;;;5065748;28;20105;-59
2023/01/29 04:12:55;;;;;;;22.25;18.02;;;4.00;99.90;;;;;;5073681;28;20032;-58
2023/01/29 04:15:24;;;;;;;24.92;18.60;;;4.10;99.90;;;;;;5066567;28;20090;-59
2023/01/29 04:17:51;;;;;;;22.23;18.23;;;4.10;99.90;;;;;;5080344;28;20417;-61
2023/01/29 04:20:19;;;;;;;23.88;18.95;;;4.10;99.90;;;;;;5068334;28;20048;-61
2023/01/29 04:22:46;;;;;;;21.58;18.20;;;4.00;99.90;;;;;;5073434;28;20416;-59
2023/01/29 04:25:25;;;;;;;25.65;19.00;;;4.00;99.90;;;;;;5066622;28;20093;-59
2023/01/29 04:28:08;;;;;;;22.35;18.35;;;4.10;99.90;;;;;;5069111;28;20046;-61
2023/01/29 04:30:40;;;;;;;23.88;18.55;;;4.10;99.90;;;;;;5074010;28;20063;-61
2023/01/29 04:33:20;;;;;;;25.02;19.65;;;4.00;99.90;;;;;;5064169;28;20115;-59
2023/01/29 04:36:13;;;;;;;21.70;18.15;;;4.10;99.90;;;;;;5065484;28;20036;-59
2023/01/29 04:38:46;;;;;;;21.85;18.90;;;4.00;99.90;;;;;;5079402;28;20363;-59
2023/01/29 04:41:37;;;;;;;23.48;19.13;;;4.00;99.90;;;;;;5073223;28;20052;-59
2023/01/29 04:44:18;;;;;;;22.48;17.90;;;4.00;99.90;;;;;;5068209;28;20456;-59
2023/01/29 04:47:09;;;;;;;24.55;19.33;;;4.10;99.90;;;;;;5070404;28;20032;-59
2023/01/29 04:49:49;;;;;;;22.17;18.10;;;4.10;99.90;;;;;;5053250;28;20032;-62
2023/01/29 04:52:38;;;;;;;23.60;19.30;;;4.10;99.90;;;;;;5061804;28;20071;-59
2023/01/29 04:55:21;;;;;;;24.35;18.70;;;4.10;99.90;;;;;;5038621;28;20040;-62
2023/01/29 04:58:04;;;;;;;23.02;18.50;;;4.10;99.90;;;;;;5098388;28;20050;-59
2023/01/29 05:00:34;;;;;;;21.70;17.88;;;4.10;99.90;;;;;;5065960;28;20159;-61
2023/01/29 05:03:01;;;;;;;22.65;18.08;;;4.10;99.90;;;;;;5070671;28;20071;-59
2023/01/29 05:05:27;;;;;;;23.88;19.27;;;4.10;99.90;;;;;;5069249;28;20111;-60
2023/01/29 05:07:54;;;;;;;22.00;18.23;;;4.10;99.90;;;;;;5066872;28;20031;-59
2023/01/29 05:10:22;;;;;;;24.15;18.23;;;4.10;99.90;;;;;;5066868;28;20049;-61
2023/01/29 05:12:53;;;;;;;21.23;17.67;;;4.20;99.90;;;;;;5067148;28;20036;-60
2023/01/29 05:15:24;;;;;;;22.50;18.67;;;4.10;99.90;;;;;;5060184;28;20047;-60
2023/01/29 05:17:52;;;;;;;23.73;18.77;;;4.10;99.90;;;;;;5069700;28;20091;-62
2023/01/29 05:20:19;;;;;;;23.08;18.27;;;4.10;99.90;;;;;;5065290;28;20093;-60
2023/01/29 05:22:46;;;;;;;22.42;18.67;;;4.10;99.90;;;;;;5068648;28;20033;-61
2023/01/29 05:25:25;;;;;;;23.85;18.55;;;4.10;99.90;;;;;;5065667;28;20046;-59
2023/01/29 05:30:37;;;;;;;22.08;18.25;;;4.10;99.90;;;;;;5060093;28;20094;-62
2023/01/29 05:33:09;;;;;;;22.23;18.05;;;4.10;99.90;;;;;;5067160;28;20117;-60
2023/01/29 05:35:35;;;;;;;21.02;17.88;;;4.10;99.90;;;;;;5059189;28;20044;-62
2023/01/29 05:38:00;;;;;;;23.40;18.35;;;4.10;99.90;;;;;;5064193;28;20037;-59
2023/01/29 05:40:32;;;;;;;22.60;18.63;;;4.10;99.90;;;;;;5070613;28;20194;-59
2023/01/29 05:42:58;;;;;;;22.25;18.58;;;4.10;99.90;;;;;;5067673;28;20040;-59
2023/01/29 05:45:24;;;;;;;21.80;17.70;;;4.10;99.90;;;;;;5078063;28;20039;-60
2023/01/29 05:47:50;;;;;;;23.30;18.40;;;4.10;99.90;;;;;;5079885;28;20041;-60
2023/01/29 05:50:16;;;;;;;22.95;18.13;;;4.10;99.90;;;;;;5053782;28;20337;-60
2023/01/29 05:52:42;;;;;;;24.30;18.05;;;4.10;99.90;;;;;;5068366;28;20525;-59
2023/01/29 05:55:09;;;;;;;22.50;17.73;;;4.10;99.90;;;;;;5073501;28;20047;-59
2023/01/29 05:57:34;;;;;;;24.17;18.30;;;4.10;99.90;;;;;;5068900;28;20036;-61
2023/01/29 06:00:00;;;;;;;23.48;18.70;;;4.10;99.90;;;;;;5062748;28;20105;-59
2023/01/29 06:02:29;;;;;;;24.38;18.63;;;4.00;99.90;;;;;;5079417;28;20040;-59
2023/01/29 06:04:54;;;;;;;23.30;18.48;;;4.00;99.90;;;;;;5093245;28;20036;-61
2023/01/29 06:07:20;;;;;;;26.35;19.10;;;4.00;99.90;;;;;;5058718;28;20102;-61
2023/01/29 06:09:45;;;;;;;25.02;19.45;;;4.10;99.90;;;;;;5054080;28;20091;-60
2023/01/29 06:12:11;;;;;;;22.40;19.05;;;4.10;99.90;;;;;;5054034;28;20040;-61
2023/01/29 06:14:42;;;;;;;25.13;19.17;;;4.00;99.90;;;;;;5061981;28;20042;-61
2023/01/29 06:17:08;;;;;;;26.58;19.38;;;4.10;99.90;;;;;;5061529;28;20148;-60
2023/01/29 06:19:33;;;;;;;22.65;18.25;;;4.00;99.90;;;;;;5060813;28;20529;-62
2023/01/29 06:21:59;;;;;;;26.08;19.77;;;4.00;99.90;;;;;;5059756;28;20424;-58
2023/01/29 06:24:24;;;;;;;24.60;19.67;;;4.00;99.90;;;;;;5058937;28;20029;-59
2023/01/29 06:26:50;;;;;;;22.95;18.63;;;4.00;99.90;;;;;;5047705;28;20063;-58
2023/01/29 06:29:15;;;;;;;24.77;19.02;;;4.00;99.90;;;;;;5062886;28;20086;-60
2023/01/29 06:31:41;;;;;;;26.08;21.25;;;4.00;99.90;;;;;;5077909;28;20032;-59
2023/01/29 06:34:07;;;;;;;25.52;19.98;;;4.00;99.90;;;;;;5063921;28;20405;-59
2023/01/29 06:36:32;;;;;;;24.60;19.25;;;4.00;99.90;;;;;;5047204;28;20544;-61
2023/01/29 06:38:58;;;;;;;27.30;20.02;;;4.00;99.90;;;;;;5046048;28;20043;-59
2023/01/29 06:41:24;;;;;;;25.80;19.88;;;4.00;99.90;;;;;;5059147;28;20388;-59
2023/01/29 06:43:52;;;;;;;24.50;19.52;;;4.00;99.90;;;;;;5058942;28;20046;-59
2023/01/29 06:46:17;;;;;;;24.52;19.67;;;4.00;99.90;;;;;;5057268;28;20510;-59
2023/01/29 06:48:43;;;;;;;23.27;19.40;;;4.00;99.90;;;;;;5056633;28;20036;-60
2023/01/29 06:51:09;;;;;;;26.33;19.80;;;4.00;99.90;;;;;;5064042;28;20464;-60
2023/01/29 06:53:36;;;;;;;23.92;19.63;;;4.00;99.90;;;;;;5048014;28;20036;-60
2023/01/29 06:56:03;;;;;;;25.90;19.73;;;4.00;99.90;;;;;;5062939;28;20036;-57
2023/01/29 06:58:28;;;;;;;24.95;20.50;;;4.00;99.90;;;;;;5062628;28;20047;-62
2023/01/29 07:01:04;;;;;;;26.42;21.20;;;4.00;99.90;;;;;;5063369;28;20036;-59
2023/01/29 07:03:30;;;;;;;24.88;20.98;;;4.00;99.90;;;;;;5060764;28;20056;-59
2023/01/29 07:05:55;;;;;;;27.40;21.85;;;4.00;99.90;;;;;;5066408;28;20036;-59
2023/01/29 07:08:21;;;;;;;27.30;21.23;;;4.00;99.90;;;;;;5060503;28;20041;-60
2023/01/29 07:10:47;;;;;;;27.60;22.65;;;4.00;99.90;;;;;;5062630;28;20040;-61
2023/01/29 07:13:13;;;;;;;28.50;22.17;;;4.00;99.90;;;;;;5060339;28;20037;-61
2023/01/29 07:15:39;;;;;;;29.08;22.08;;;4.00;99.90;;;;;;5064684;28;20037;-59
2023/01/29 07:18:10;;;;;;;27.48;22.75;;;4.00;99.90;;;;;;5058893;28;20416;-61
2023/01/29 07:20:40;;;;;;;29.00;22.33;;;4.00;99.90;;;;;;5057412;28;20041;-59
2023/01/29 07:23:07;;;;;;;28.17;22.85;;;4.00;99.90;;;;;;5062698;28;20036;-59
2023/01/29 07:25:34;;;;;;;28.63;22.90;;;4.00;99.90;;;;;;5062507;28;20356;-61
2023/01/29 07:28:00;;;;;;;32.38;24.02;;;4.10;99.90;;;;;;5061209;28;20388;-61
2023/01/29 07:30:26;;;;;;;27.60;22.00;;;4.00;99.90;;;;;;5060004;28;20524;-60
2023/01/29 07:32:52;;;;;;;31.35;23.58;;;4.00;99.90;;;;;;5061753;28;20203;-60
2023/01/29 07:35:19;;;;;;;29.83;22.73;;;4.00;99.90;;;;;;5062770;28;20502;-57
2023/01/29 07:37:48;;;;;;;31.65;22.80;;;4.00;99.90;;;;;;5061914;28;20616;-60
2023/01/29 07:40:14;;;;;;;29.90;23.42;;;4.00;99.90;;;;;;5076043;28;20123;-60
2023/01/29 07:42:42;;;;;;;29.20;22.45;;;4.00;99.90;;;;;;5084942;28;20047;-61
2023/01/29 07:45:09;;;;;;;30.27;23.05;;;4.00;99.90;;;;;;5063238;28;20041;-60
2023/01/29 07:47:35;;;;;;;30.38;22.30;;;4.00;99.90;;;;;;5060457;28;20041;-62
2023/01/29 07:50:01;;;;;;;29.70;23.10;;;4.10;99.90;;;;;;5080251;28;20037;-58
2023/01/29 07:52:29;;;;;;;32.92;23.92;;;4.00;99.90;;;;;;5062845;28;20136;-61
2023/01/29 07:54:55;;;;;;;31.70;23.80;;;4.00;99.90;;;;;;5063167;28;20105;-60
2023/01/29 07:57:20;;;;;;;29.42;23.17;;;4.00;99.90;;;;;;5062658;28;20334;-60
2023/01/29 07:59:46;;;;;;;28.17;22.40;;;4.00;99.90;;;;;;5061484;28;20037;-60
2023/01/29 08:02:12;;;;;;;28.52;22.27;;;4.00;99.90;;;;;;5062629;28;20047;-60
2023/01/29 08:04:37;;;;;;;28.98;22.17;;;4.10;99.90;;;;;;5062871;28;20044;-60
2023/01/29 08:07:03;;;;;;;29.15;22.60;;;4.10;99.90;;;;;;5061679;28;20078;-60
2023/01/29 08:09:29;;;;;;;29.77;22.90;;;4.00;99.90;;;;;;5048909;28;20101;-61
2023/01/29 08:11:58;;;;;;;26.98;22.17;;;4.00;99.90;;;;;;5045037;28;20060;-59
2023/01/29 08:14:23;;;;;;;28.60;22.25;;;4.10;99.90;;;;;;5033670;28;20041;-60
2023/01/29 08:16:49;;;;;;;27.98;21.77;;;4.10;99.90;;;;;;5067066;28;20044;-62
2023/01/29 08:19:15;;;;;;;28.30;22.13;;;4.10;99.90;;;;;;5074125;28;20040;-61
2023/01/29 08:21:40;;;;;;;28.77;21.83;;;4.10;99.90;;;;;;5075330;28;20044;-61
2023/01/29 08:24:06;;;;;;;27.60;21.50;;;4.10;99.90;;;;;;5076406;28;20036;-61
2023/01/29 08:26:32;;;;;;;30.38;22.00;;;4.10;99.90;;;;;;5058489;28;20047;-60
2023/01/29 08:28:58;;;;;;;27.83;21.70;;;4.20;99.90;;;;;;5072119;28;20036;-62
2023/01/29 08:31:23;;;;;;;29.33;22.13;;;4.10;99.90;;;;;;5076051;28;20041;-63
2023/01/29 08:33:49;;;;;;;28.75;22.52;;;4.10;99.90;;;;;;5074170;28;20127;-60
2023/01/29 08:36:14;;;;;;;28.08;22.77;;;4.10;99.90;;;;;;5076884;28;20039;-61
2023/01/29 08:38:40;;;;;;;27.52;22.15;;;4.10;99.90;;;;;;5074202;28;20139;-60
2023/01/29 08:41:06;;;;;;;30.55;21.67;;;4.20;99.90;;;;;;5079835;28;20044;-60
2023/01/29 08:43:35;;;;;;;28.90;22.30;;;4.20;99.90;;;;;;5077577;28;20043;-65
2023/01/29 08:46:03;;;;;;;27.20;21.40;;;4.20;99.90;;;;;;5080594;28;20029;-62
2023/01/29 08:48:29;;;;;;;28.40;22.17;;;4.20;99.90;;;;;;5079907;28;20071;-61
2023/01/29 08:50:59;;;;;;;29.48;21.77;;;4.30;99.90;;;;;;5084214;28;20086;-60
2023/01/29 08:53:25;;;;;;;31.63;22.92;;;4.30;99.90;;;;;;5061355;28;20032;-62
2023/01/29 08:55:52;;;;;;;27.75;22.40;;;4.30;99.90;;;;;;5071713;28;20188;-61
2023/01/29 08:58:19;;;;;;;27.02;21.33;;;4.40;99.90;;;;;;5054145;28;20052;-61
2023/01/29 09:00:44;;;;;;;31.98;22.27;;;4.40;99.90;;;;;;5055655;28;20417;-60
2023/01/29 09:03:10;;;;;;;29.52;22.38;;;4.40;99.90;;;;;;5039619;28;20051;-59
2023/01/29 09:05:37;;;;;;;27.95;21.70;;;4.40;99.90;;;;;;5040997;28;20055;-60
2023/01/29 09:08:04;;;;;;;27.70;22.67;;;4.40;99.90;;;;;;5062194;28;20044;-62
2023/01/29 09:10:30;;;;;;;29.17;22.52;;;4.40;99.90;;;;;;5073953;28;20136;-62
2023/01/29 09:12:56;;;;;;;27.15;21.60;;;4.40;99.90;;;;;;5061496;28;20105;-61
2023/01/29 09:15:27;;;;;;;28.02;22.58;;;4.50;99.90;;;;;;5059477;28;20036;-62
2023/01/29 09:18:01;;;;;;;29.73;22.05;;;4.50;99.90;;;;;;5054643;28;20109;-63
2023/01/29 09:20:26;;;;;;;27.52;21.95;;;4.50;99.90;;;;;;5061236;28;20471;-62
2023/01/29 09:22:55;;;;;;;24.95;20.95;;;4.60;99.90;;;;;;5061596;28;20107;-61
2023/01/29 09:25:22;;;;;;;27.27;22.25;;;4.60;99.90;;;;;;5059150;28;20044;-61
2023/01/29 09:27:47;;;;;;;27.88;22.67;;;4.70;99.90;;;;;;5061226;28;20123;-59
2023/01/29 09:30:13;;;;;;;28.17;22.30;;;4.70;99.90;;;;;;5062317;28;20115;-59
2023/01/29 09:32:39;;;;;;;28.35;21.90;;;4.70;99.90;;;;;;5063396;28;20054;-59
2023/01/29 09:35:05;;;;;;;28.67;22.10;;;4.70;99.90;;;;;;5063071;28;20032;-61
2023/01/29 09:37:30;;;;;;;27.00;21.40;;;4.80;99.90;;;;;;5062304;28;20507;-59
2023/01/29 09:39:56;;;;;;;26.40;21.02;;;4.80;99.90;;;;;;5061936;28;20075;-60
2023/01/29 09:42:47;;;;;;;27.48;21.38;;;4.80;99.90;;;;;;5054582;28;20077;-60
2023/01/29 09:45:26;;;;;;;29.92;21.50;;;4.90;99.90;;;;;;5060328;28;20029;-59
2023/01/29 09:47:59;;;;;;;25.58;20.90;;;4.90;99.90;;;;;;5050588;28;20052;-61
2023/01/29 09:50:38;;;;;;;25.38;21.33;;;4.90;99.90;;;;;;5048343;28;20114;-62
2023/01/29 09:53:18;;;;;;;26.35;20.63;;;4.90;99.90;;;;;;5047534;28;20048;-62
2023/01/29 09:56:13;;;;;;;24.67;20.92;;;5.00;99.90;;;;;;5048772;28;20346;-62
2023/01/29 09:58:41;;;;;;;26.52;20.77;;;5.00;99.90;;;;;;5020422;28;20049;-60
2023/01/29 10:01:28;;;;;;;30.20;22.80;;;5.10;99.90;;;;;;5045920;28;20059;-61
2023/01/29 10:04:14;;;;;;;25.15;20.92;;;5.10;99.90;;;;;;5044838;28;20148;-60
2023/01/29 10:06:59;;;;;;;28.33;21.48;;;5.10;99.90;;;;;;5047277;28;20046;-62
2023/01/29 10:10:06;;;;;;;28.73;21.92;;;5.10;99.90;;;;;;5058315;28;20102;-60
2023/01/29 10:12:40;;;;;;;26.90;21.40;;;5.20;99.90;;;;;;5059449;28;20033;-61
2023/01/29 10:15:36;;;;;;;28.02;21.52;;;5.20;99.90;;;;;;5055228;28;20117;-62
2023/01/29 10:18:26;;;;;;;30.25;21.77;;;5.30;99.90;;;;;;5058279;28;20037;-60
2023/01/29 10:21:13;;;;;;;28.45;21.50;;;5.30;99.90;;;;;;5059220;28;20052;-60
2023/01/29 10:23:54;;;;;;;29.45;21.90;;;5.40;99.90;;;;;;5061002;28;20044;-60
2023/01/29 10:26:23;;;;;;;26.13;21.33;;;5.40;99.90;;;;;;5058371;28;20033;-61
2023/01/29 10:28:53;;;;;;;25.85;21.08;;;5.40;99.90;;;;;;5061293;28;20046;-61
2023/01/29 10:31:37;;;;;;;25.25;21.00;;;5.40;99.90;;;;;;5063358;28;20044;-61
2023/01/29 10:34:24;;;;;;;26.42;21.20;;;5.40;99.90;;;;;;5063487;28;20066;-61
2023/01/29 10:36:49;;;;;;;28.67;21.27;;;5.40;99.90;;;;;;5063784;28;20040;-62
2023/01/29 10:39:18;;;;;;;28.35;21.55;;;5.40;99.90;;;;;;5044850;28;20044;-61
2023/01/29 10:41:58;;;;;;;26.35;21.17;;;5.40;99.90;;;;;;5076072;28;20076;-61
2023/01/29 10:45:02;;;;;;;27.75;22.13;;;5.30;99.90;;;;;;5083184;28;20040;-60
2023/01/29 10:48:03;;;;;;;27.05;21.40;;;5.30;99.90;;;;;;5083238;28;20036;-62
2023/01/29 10:50:34;;;;;;;26.65;20.95;;;5.40;99.90;;;;;;5082278;28;20719;-61
2023/01/29 10:53:26;;;;;;;24.95;19.67;;;5.30;99.90;;;;;;5063503;28;20039;-60
2023/01/29 10:56:40;;;;;;;24.38;20.02;;;5.40;99.90;;;;;;5066955;28;20040;-59
2023/01/29 10:59:50;;;;;;;27.70;21.48;;;5.50;99.90;;;;;;4981112;28;20058;-62
2023/01/29 11:02:20;;;;;;;24.88;20.92;;;5.50;99.90;;;;;;5065326;28;20101;-59
2023/01/29 11:04:45;;;;;;;27.17;21.58;;;5.50;99.90;;;;;;5065806;28;20372;-59
2023/01/29 11:07:12;;;;;;;28.75;23.20;;;5.60;99.90;;;;;;5065206;28;20048;-60
2023/01/29 11:09:41;;;;;;;28.90;22.15;;;5.70;99.90;;;;;;5068418;28;20085;-62
2023/01/29 11:12:13;;;;;;;26.40;20.75;;;5.70;99.90;;;;;;5072595;28;20075;-60
2023/01/29 11:15:00;;;;;;;26.58;20.27;;;5.70;99.90;;;;;;5043951;28;20097;-61
2023/01/29 11:17:26;;;;;;;23.80;20.08;;;5.70;99.90;;;;;;5058482;28;20506;-59
2023/01/29 11:19:56;;;;;;;23.92;20.98;;;5.70;99.90;;;;;;5051839;28;20040;-59
2023/01/29 11:22:25;;;;;;;26.50;19.75;;;5.60;99.90;;;;;;5061104;28;20044;-59
2023/01/29 11:25:19;;;;;;;26.98;20.42;;;5.60;99.90;;;;;;5074388;28;20044;-61
2023/01/29 11:27:46;;;;;;;26.75;20.30;;;5.70;99.90;;;;;;5044696;28;20371;-61
2023/01/29 11:30:21;;;;;;;25.42;20.30;;;5.60;99.90;;;;;;5063925;28;20032;-61
2023/01/29 11:33:07;;;;;;;27.00;19.83;;;5.70;99.90;;;;;;5063731;28;20056;-60
2023/01/29 11:35:33;;;;;;;25.70;19.85;;;5.70;99.90;;;;;;5063222;28;20052;-61
2023/01/29 11:38:17;;;;;;;27.42;19.67;;;5.70;99.90;;;;;;5080209;28;20055;-60
2023/01/29 11:40:43;;;;;;;25.88;19.90;;;5.80;99.90;;;;;;5065440;28;20460;-61
2023/01/29 11:43:17;;;;;;;28.02;21.17;;;5.80;99.90;;;;;;5085202;28;20374;-61
2023/01/29 11:45:48;;;;;;;27.90;20.67;;;5.80;99.90;;;;;;5070395;28;20119;-60
2023/01/29 11:48:26;;;;;;;24.13;19.17;;;5.70;99.90;;;;;;5062047;28;20046;-62
2023/01/29 11:51:01;;;;;;;24.40;19.48;;;5.70;99.90;;;;;;5057241;28;20047;-60
2023/01/29 11:53:33;;;;;;;24.98;20.65;;;5.70;99.90;;;;;;5052079;28;20063;-60
2023/01/29 11:56:04;;;;;;;25.65;19.77;;;5.60;99.90;;;;;;5060675;28;20039;-61
2023/01/29 11:58:35;;;;;;;22.90;19.38;;;5.60;99.90;;;;;;5068933;28;20057;-62
2023/01/29 12:01:06;;;;;;;25.33;20.00;;;5.60;99.90;;;;;;5051798;28;20460;-62
2023/01/29 12:03:47;;;;;;;25.92;19.85;;;5.50;99.90;;;;;;5076449;28;20115;-62
2023/01/29 12:06:28;;;;;;;25.50;20.38;;;5.50;99.90;;;;;;5084787;28;20119;-61
2023/01/29 12:08:57;;;;;;;26.42;20.17;;;5.50;99.90;;;;;;5082895;28;20036;-59
2023/01/29 12:11:27;;;;;;;30.10;20.23;;;5.50;99.90;;;;;;5032942;28;20501;-60
2023/01/29 12:13:54;;;;;;;27.42;20.27;;;5.50;99.90;;;;;;5083696;28;20105;-60
2023/01/29 12:16:32;;;;;;;23.75;19.48;;;5.50;99.90;;;;;;5082508;28;20067;-59
2023/01/29 12:18:57;;;;;;;27.17;20.77;;;5.50;99.90;;;;;;5077172;28;20032;-60
2023/01/29 12:21:45;;;;;;;24.90;20.42;;;5.50;99.90;;;;;;5082334;28;20112;-63
2023/01/29 12:24:35;;;;;;;27.40;19.73;;;5.50;99.90;;;;;;5082007;28;20029;-59
2023/01/29 12:27:07;;;;;;;24.50;20.50;;;5.50;99.90;;;;;;5078828;28;20468;-58
2023/01/29 12:30:06;;;;;;;27.58;20.63;;;5.50;99.90;;;;;;5082218;28;20032;-60
2023/01/29 12:32:41;;;;;;;24.63;19.63;;;5.50;99.90;;;;;;5077764;28;20040;-61
2023/01/29 12:35:16;;;;;;;24.38;20.00;;;5.50;99.90;;;;;;5080230;28;20036;-58
2023/01/29 12:37:59;;;;;;;25.88;20.90;;;5.50;99.90;;;;;;5081282;28;20032;-60
2023/01/29 12:40:30;;;;;;;28.55;22.05;;;5.50;99.90;;;;;;5079326;28;20036;-60
2023/01/29 12:43:05;;;;;;;25.90;20.33;;;5.40;99.90;;;;;;5081331;28;20048;-58
2023/01/29 12:45:51;;;;;;;28.05;21.40;;;5.40;99.90;;;;;;5047853;28;20043;-59
2023/01/29 12:48:35;;;;;;;28.25;21.35;;;5.30;99.90;;;;;;5063392;28;20079;-58
2023/01/29 12:51:28;;;;;;;28.73;21.65;;;5.30;99.90;;;;;;5079937;28;20058;-59
2023/01/29 12:54:05;;;;;;;27.30;22.00;;;5.30;99.90;;;;;;5078945;28;20371;-61
2023/01/29 12:56:44;;;;;;;26.63;22.00;;;5.30;99.90;;;;;;5082088;28;20058;-61
2023/01/29 12:59:22;;;;;;;;;;;5.30;99.90;;;;;;5080917;28;20048;-61
2023/01/29 13:01:53;;;;;;;29.38;21.45;;;5.20;99.90;;;;;;5082608;28;20014;-61
2023/01/29 13:04:28;;;;;;;28.08;22.30;;;5.20;99.90;;;;;;5079614;28;20024;-60
2023/01/29 13:06:58;;;;;;;27.30;22.05;;;5.10;99.90;;;;;;5062315;28;20123;-61
2023/01/29 13:09:32;;;;;;;30.70;23.35;;;5.10;99.90;;;;;;5062308;28;20036;-60
2023/01/29 13:12:05;;;;;;;30.42;21.67;;;5.10;99.90;;;;;;5076539;28;20435;-59
2023/01/29 13:14:45;;;;;;;28.83;22.52;;;5.10;99.90;;;;;;5082183;28;20048;-60
2023/01/29 13:17:20;;;;;;;28.02;23.10;;;5.10;99.90;;;;;;5082662;28;20046;-61
2023/01/29 13:19:51;;;;;;;29.70;23.67;;;5.10;99.90;;;;;;5079539;28;20103;-61
2023/01/29 13:22:26;;;;;;;28.90;23.88;;;5.10;99.90;;;;;;5079648;28;20361;-60
2023/01/29 13:24:54;;;;;;;30.88;23.38;;;5.10;99.90;;;;;;5081641;28;20049;-60
2023/01/29 13:27:25;;;;;;;29.35;23.58;;;5.10;99.90;;;;;;5061499;28;20024;-59
2023/01/29 13:29:51;;;;;;;31.90;24.15;;;5.10;99.90;;;;;;5079882;28;20038;-61